createdAt,value
2022-08-09T00:02:43.065Z,2.25
2022-08-09T00:06:51.350Z,2.55
2022-08-09T00:10:54.351Z,3.03
2022-08-09T00:15:06.365Z,3.75
2022-08-09T00:19:10.409Z,3.05
2022-08-09T00:23:57.426Z,2.50
2022-08-09T00:27:36.293Z,2.90
2022-08-09T00:31:57.019Z,2.60
2022-08-09T00:36:00.936Z,2.85
2022-08-09T00:40:12.956Z,2.40
2022-08-09T00:44:26.247Z,2.72
2022-08-09T00:48:29.017Z,2.53
2022-08-09T00:52:31.203Z,2.50
2022-08-09T00:56:35.725Z,2.53
2022-08-09T01:00:40.567Z,2.63
2022-08-09T01:05:14.375Z,2.90
2022-08-09T01:09:35.935Z,2.55
2022-08-09T01:14:07.894Z,2.30
2022-08-09T01:18:18.331Z,3.25
2022-08-09T01:23:12.393Z,2.90
2022-08-09T01:27:29.594Z,2.85
2022-08-09T01:32:28.096Z,2.75
2022-08-09T01:36:04.350Z,2.80
2022-08-09T01:40:09.234Z,2.65
2022-08-09T01:44:13.645Z,2.25
2022-08-09T01:48:19.534Z,2.72
2022-08-09T01:52:26.980Z,3.00
2022-08-09T01:56:33.205Z,2.85
2022-08-09T02:00:36.341Z,2.65
2022-08-09T02:04:45.393Z,2.95
2022-08-09T02:13:05.210Z,3.13
2022-08-09T02:17:29.434Z,3.05
2022-08-09T02:21:38.280Z,2.80
2022-08-09T02:25:49.622Z,2.65
2022-08-09T02:29:55.843Z,3.50
2022-08-09T02:34:06.898Z,2.65
2022-08-09T02:38:22.076Z,2.85
2022-08-09T02:42:42.923Z,2.85
2022-08-09T02:46:46.674Z,3.20
2022-08-09T02:54:59.704Z,2.78
2022-08-09T02:59:06.999Z,3.10
2022-08-09T03:03:10.954Z,3.47
2022-08-09T03:07:14.639Z,3.38
2022-08-09T03:12:04.708Z,3.30
2022-08-09T03:16:06.152Z,3.40
2022-08-09T03:20:11.261Z,3.20
2022-08-09T03:24:13.236Z,3.35
2022-08-09T03:28:34.942Z,3.25
2022-08-09T03:32:37.853Z,2.78
2022-08-09T03:36:40.185Z,3.33
2022-08-09T03:44:53.008Z,3.25
2022-08-09T03:49:04.052Z,3.53
2022-08-09T03:53:10.862Z,3.20
2022-08-09T03:57:20.026Z,2.97
2022-08-09T04:01:24.823Z,3.00
2022-08-09T04:05:27.736Z,3.08
2022-08-09T04:09:48.330Z,3.72
2022-08-09T04:14:53.468Z,3.10
2022-08-09T04:18:17.848Z,3.38
2022-08-09T04:22:19.780Z,3.10
2022-08-09T04:26:23.402Z,3.25
2022-08-09T04:30:26.090Z,3.70
2022-08-09T04:34:33.375Z,3.55
2022-08-09T04:38:34.798Z,3.70
2022-08-09T04:42:38.609Z,3.15
2022-08-09T04:46:59.089Z,3.47
2022-08-09T04:51:01.968Z,3.22
2022-08-09T04:55:04.713Z,3.78
2022-08-09T04:59:15.585Z,2.92
2022-08-09T05:03:40.682Z,3.30
2022-08-09T05:07:38.638Z,3.28
2022-08-09T05:11:41.862Z,3.30
2022-08-09T05:15:52.092Z,2.78
2022-08-09T05:19:58.281Z,3.67
2022-08-09T05:24:02.007Z,3.38
2022-08-09T05:28:04.396Z,3.13
2022-08-09T05:32:06.094Z,2.75
2022-08-09T05:36:08.105Z,3.60
2022-08-09T05:40:10.232Z,2.90
2022-08-09T05:44:11.768Z,2.92
2022-08-09T05:48:15.432Z,3.38
2022-08-09T05:52:18.483Z,2.97
2022-08-09T05:56:25.843Z,3.45
2022-08-09T06:00:33.154Z,3.42
2022-08-09T06:04:35.304Z,3.45
2022-08-09T06:08:36.834Z,2.97
2022-08-09T06:12:38.773Z,2.92
2022-08-09T06:16:40.213Z,3.20
2022-08-09T06:20:43.325Z,3.30
2022-08-09T06:24:55.879Z,3.47
2022-08-09T06:28:59.954Z,3.45
2022-08-09T06:33:30.452Z,3.50
2022-08-09T06:37:53.073Z,3.50
2022-08-09T06:41:55.912Z,3.17
2022-08-09T06:46:10.897Z,3.15
2022-08-09T06:50:16.551Z,3.10
2022-08-09T06:54:21.373Z,2.95
2022-08-09T06:58:40.817Z,3.13
2022-08-09T07:02:44.793Z,3.38
2022-08-09T07:06:53.205Z,3.95
2022-08-09T07:10:55.029Z,3.33
2022-08-09T07:14:56.488Z,3.30
2022-08-09T07:18:58.164Z,3.45
2022-08-09T07:22:59.679Z,2.80
2022-08-09T07:27:02.254Z,3.22
2022-08-09T07:31:04.912Z,3.17
2022-08-09T07:35:11.442Z,3.22
2022-08-09T07:39:20.108Z,3.42
2022-08-09T07:43:50.073Z,2.40
2022-08-09T07:48:01.591Z,2.33
2022-08-09T07:56:27.045Z,2.80
2022-08-09T08:00:35.404Z,2.60
2022-08-09T08:04:38.725Z,2.60
2022-08-09T08:09:00.804Z,2.53
2022-08-09T08:13:03.770Z,2.75
2022-08-09T08:17:09.109Z,3.05
2022-08-09T08:21:26.642Z,2.40
2022-08-09T08:25:44.003Z,2.78
2022-08-09T08:29:49.942Z,2.53
2022-08-09T08:33:53.811Z,2.72
2022-08-09T08:38:01.947Z,2.50
2022-08-09T08:42:10.948Z,2.60
2022-08-09T08:46:33.572Z,2.33
2022-08-09T08:50:34.685Z,2.35
2022-08-09T08:54:36.336Z,2.25
2022-08-09T08:58:38.345Z,2.08
2022-08-09T09:02:50.111Z,2.20
2022-08-09T09:06:58.090Z,2.58
2022-08-09T09:11:04.584Z,1.98
2022-08-09T09:15:07.658Z,1.90
2022-08-09T09:23:49.775Z,2.10
2022-08-09T09:28:06.596Z,1.92
2022-08-09T09:32:15.878Z,2.75
2022-08-09T09:36:20.418Z,2.00
2022-08-09T09:40:41.443Z,2.60
2022-08-09T09:44:59.102Z,3.70
2022-08-09T09:49:04.697Z,2.05
2022-08-09T09:53:15.729Z,1.98
2022-08-09T09:58:02.604Z,2.25
2022-08-09T10:01:43.080Z,2.10
2022-08-09T10:06:03.637Z,2.38
2022-08-09T10:10:06.793Z,2.10
2022-08-09T10:14:31.726Z,2.53
2022-08-09T10:18:35.307Z,2.08
2022-08-09T10:22:39.198Z,2.50
2022-08-09T10:26:41.507Z,1.80
2022-08-09T10:35:07.480Z,2.47
2022-08-09T10:39:15.543Z,1.70
2022-08-09T10:48:19.403Z,1.70
2022-08-09T10:52:07.743Z,2.10
2022-08-09T10:56:36.471Z,1.88
2022-08-09T11:00:56.997Z,2.10
2022-08-09T11:05:25.044Z,2.47
2022-08-09T11:09:37.504Z,2.05
2022-08-09T11:13:51.184Z,2.17
2022-08-09T11:18:03.640Z,2.25
2022-08-09T11:22:18.569Z,2.30
2022-08-09T11:26:39.883Z,1.85
2022-08-09T11:30:48.757Z,2.03
2022-08-09T11:34:52.166Z,2.63
2022-08-09T11:39:01.826Z,2.10
2022-08-09T11:43:03.379Z,2.33
2022-08-09T11:47:05.033Z,1.80
2022-08-09T11:52:53.753Z,2.63
2022-08-09T11:55:52.425Z,1.95
2022-08-09T11:59:55.616Z,2.20
2022-08-09T12:04:23.917Z,1.70
2022-08-09T12:08:34.289Z,1.98
2022-08-09T12:12:49.172Z,2.08
2022-08-09T12:16:56.422Z,2.15
2022-08-09T12:21:02.793Z,2.13
2022-08-09T12:25:17.940Z,2.05
2022-08-09T12:29:43.892Z,2.33
2022-08-09T12:33:59.028Z,1.98
2022-08-09T12:38:33.243Z,2.05
2022-08-09T12:42:45.990Z,2.30
2022-08-09T12:46:50.160Z,2.30
2022-08-09T12:50:52.113Z,1.80
2022-08-09T12:56:12.013Z,2.25
2022-08-09T12:59:22.553Z,2.58
2022-08-09T13:03:53.272Z,3.35
2022-08-09T13:08:16.204Z,2.22
2022-08-09T13:12:23.161Z,2.90
2022-08-09T13:16:40.041Z,1.80
2022-08-09T13:21:04.403Z,2.17
2022-08-09T13:25:08.106Z,2.15
2022-08-09T13:29:42.235Z,1.93
2022-08-09T13:33:53.532Z,1.88
2022-08-09T13:37:55.587Z,1.90
2022-08-09T13:42:05.010Z,2.00
2022-08-09T13:46:42.269Z,1.90
2022-08-09T13:50:31.156Z,1.85
2022-08-09T13:54:33.427Z,1.85
2022-08-09T13:58:35.671Z,1.70
2022-08-09T14:02:42.452Z,1.95
2022-08-09T14:07:03.685Z,1.92
2022-08-09T14:11:09.873Z,2.08
2022-08-09T14:16:06.752Z,2.00
2022-08-09T14:19:39.406Z,2.60
2022-08-09T14:23:53.836Z,2.63
2022-08-09T14:27:58.654Z,1.90
2022-08-09T14:32:11.376Z,1.70
2022-08-09T14:36:20.896Z,1.75
2022-08-09T14:40:38.765Z,1.75
2022-08-09T14:44:48.931Z,1.55
2022-08-09T14:49:02.919Z,1.70
2022-08-09T14:53:11.252Z,1.70
2022-08-09T14:57:13.533Z,1.60
2022-08-09T15:01:17.999Z,1.70
2022-08-09T15:05:22.145Z,1.80
2022-08-09T15:10:03.988Z,1.30
2022-08-09T15:13:56.261Z,1.70
2022-08-09T15:18:07.563Z,1.90
2022-08-09T15:22:13.702Z,1.58
2022-08-09T15:26:31.210Z,1.60
2022-08-09T15:30:56.257Z,1.80
2022-08-09T15:34:56.380Z,1.80
2022-08-09T15:38:59.806Z,1.75
2022-08-09T15:43:01.842Z,1.50
2022-08-09T15:47:03.867Z,1.90
2022-08-09T15:51:30.312Z,2.30
2022-08-09T15:55:28.950Z,1.52
2022-08-09T15:59:37.508Z,1.70
2022-08-09T16:03:41.435Z,1.92
2022-08-09T16:07:46.088Z,1.70
2022-08-09T16:11:57.297Z,2.03
2022-08-09T16:16:11.574Z,2.30
2022-08-09T16:20:19.221Z,1.65
2022-08-09T16:24:33.236Z,1.67
2022-08-09T16:28:35.611Z,2.00
2022-08-09T16:32:56.153Z,1.42
2022-08-09T16:36:59.731Z,1.60
2022-08-09T16:41:04.070Z,1.80
2022-08-09T16:45:07.776Z,1.52
2022-08-09T16:49:17.722Z,1.63
2022-08-09T16:53:34.345Z,1.52
2022-08-09T16:58:09.194Z,1.30
2022-08-09T17:01:57.973Z,1.42
2022-08-09T17:06:07.580Z,1.73
2022-08-09T17:10:21.967Z,1.90
2022-08-09T17:14:25.822Z,1.60
2022-08-09T17:18:30.188Z,1.40
2022-08-09T17:22:32.847Z,1.50
2022-08-09T17:26:38.410Z,1.52
2022-08-09T17:30:41.382Z,1.63
2022-08-09T17:35:01.365Z,2.00
2022-08-09T17:39:10.744Z,2.78
2022-08-09T17:43:33.929Z,1.80
2022-08-09T17:47:49.442Z,1.98
2022-08-09T17:51:55.250Z,1.73
2022-08-09T17:56:02.068Z,1.73
2022-08-09T18:00:08.222Z,2.15
2022-08-09T18:04:11.305Z,2.10
2022-08-09T18:08:14.166Z,1.88
2022-08-09T18:12:20.024Z,2.40
2022-08-09T18:16:30.577Z,3.00
2022-08-09T18:20:59.139Z,2.30
2022-08-09T18:24:54.149Z,2.55
2022-08-09T18:30:40.545Z,2.08
2022-08-09T18:33:23.033Z,2.08
2022-08-09T18:37:49.181Z,3.00
2022-08-09T18:41:52.536Z,3.50
2022-08-09T18:46:49.337Z,3.33
2022-08-09T18:50:16.760Z,2.45
2022-08-09T18:54:29.974Z,3.28
2022-08-09T18:58:33.025Z,5.22
2022-08-09T19:02:34.991Z,2.05
2022-08-09T19:06:38.554Z,2.28
2022-08-09T19:10:40.437Z,1.90
2022-08-09T19:14:43.538Z,2.03
2022-08-09T19:18:45.672Z,1.80
2022-08-09T19:22:50.373Z,1.83
2022-08-09T19:30:57.729Z,1.98
2022-08-09T19:34:59.162Z,2.20
2022-08-09T19:39:03.570Z,2.13
2022-08-09T19:43:10.284Z,2.20
2022-08-09T19:47:22.844Z,2.80
2022-08-09T19:51:25.552Z,2.22
2022-08-09T19:56:02.147Z,2.00
2022-08-09T19:59:59.269Z,2.20
2022-08-09T20:04:23.563Z,2.92
2022-08-09T20:08:35.414Z,3.35
2022-08-09T20:12:41.393Z,2.60
2022-08-09T20:16:53.621Z,2.17
2022-08-09T20:20:57.010Z,2.40
2022-08-09T20:24:58.583Z,2.13
2022-08-09T20:29:18.580Z,2.58
2022-08-09T20:33:20.620Z,2.63
2022-08-09T20:37:22.842Z,2.38
2022-08-09T20:41:35.237Z,2.35
2022-08-09T20:46:02.031Z,2.70
2022-08-09T20:50:02.354Z,2.47
2022-08-09T20:54:04.233Z,1.98
2022-08-09T20:58:08.106Z,2.08
2022-08-09T21:02:21.968Z,1.80
2022-08-09T21:06:25.753Z,2.72
2022-08-09T21:10:30.937Z,2.30
2022-08-09T21:14:40.682Z,1.80
2022-08-09T21:19:01.810Z,1.90
2022-08-09T21:23:08.876Z,1.85
2022-08-09T21:27:52.157Z,2.33
2022-08-09T21:31:48.090Z,1.70
2022-08-09T21:35:52.692Z,1.88
2022-08-09T21:39:54.418Z,1.92
2022-08-09T21:43:58.202Z,2.17
2022-08-09T21:48:00.394Z,2.35
2022-08-09T21:52:01.852Z,1.90
2022-08-09T21:56:03.682Z,2.22
2022-08-09T22:00:10.511Z,2.15
2022-08-09T22:04:12.012Z,2.00
2022-08-09T22:08:18.252Z,2.00
2022-08-09T22:12:30.372Z,2.35
2022-08-09T22:16:37.222Z,2.10
2022-08-09T22:20:40.164Z,2.72
2022-08-09T22:26:04.391Z,2.30
2022-08-09T22:29:07.270Z,2.00
2022-08-09T22:33:09.608Z,2.25
2022-08-09T22:37:12.435Z,2.70
2022-08-09T22:41:15.409Z,2.00
2022-08-09T22:48:17.750Z,2.05
2022-08-09T22:49:40.357Z,2.30
2022-08-09T22:53:58.679Z,1.92
2022-08-09T22:58:04.908Z,1.80
2022-08-09T23:02:06.679Z,2.28
2022-08-09T23:06:08.163Z,1.95
2022-08-09T23:10:15.900Z,2.13
2022-08-09T23:14:17.721Z,2.45
2022-08-09T23:18:40.139Z,2.47
2022-08-09T23:22:41.617Z,2.33
2022-08-09T23:26:43.052Z,2.30
2022-08-09T23:30:51.361Z,2.40
2022-08-09T23:34:53.618Z,2.42
2022-08-09T23:38:55.195Z,2.38
2022-08-09T23:42:56.660Z,2.65
2022-08-09T23:46:58.121Z,2.40
2022-08-09T23:50:59.536Z,1.92
2022-08-09T23:55:01.012Z,2.65
2022-08-09T23:59:02.648Z,2.40
